Santana de Parnaiba, Brazil
Current Conditions -  °F | °C
As of 7:00 PM on Thursday 18 Dec 2014 (Local Time) from SBMT Reporting Station
Few Clouds Few Clouds  
Wind Chill: 79°   Ceiling: Unl
Heat Index: 80°   Visibility: 6mi
Dew Point: 63°   Wind: 10mph
Humidity: 57%   Direction: 130°SE
Pressure: 29.85"   Gusts: NA
Location:  23.44°S, 46.92°W
Report Text: SBMT 182100Z 13009KT 9999 FEW030 26/17 Q1011
Loading
Personal Weather Stations






























Interactive Weather Map New forecast layout! Learn more

10-Day Weather Forecast

Advertisements
Track Severe Weather on mobile